createdAt,value
2024-03-02T00:00:54.373Z,9.17
2024-03-02T00:03:21.316Z,9.16
2024-03-02T00:05:52.884Z,9.28
2024-03-02T00:08:25.162Z,9.19
2024-03-02T00:10:51.792Z,9.11
2024-03-02T00:13:23.715Z,9.28
2024-03-02T00:15:54.460Z,9.34
2024-03-02T00:18:25.456Z,9.27
2024-03-02T00:20:55.840Z,9.35
2024-03-02T00:23:23.189Z,9.22
2024-03-02T00:25:50.780Z,9.14
2024-03-02T00:28:20.002Z,9.11
2024-03-02T00:30:57.125Z,9.04
2024-03-02T00:33:24.573Z,9.21
2024-03-02T00:35:51.492Z,9.25
2024-03-02T00:38:18.178Z,9.28
2024-03-02T00:40:45.745Z,9.19
2024-03-02T00:43:30.798Z,9.09
2024-03-02T00:45:57.244Z,9.14
2024-03-02T00:48:23.653Z,9.26
2024-03-02T00:50:53.979Z,9.18
2024-03-02T00:53:26.974Z,9.07
2024-03-02T00:55:53.775Z,9.03
2024-03-02T00:58:20.193Z,8.98
2024-03-02T01:00:46.935Z,9.08
2024-03-02T01:03:13.760Z,9.15
2024-03-02T01:05:44.255Z,9.04
2024-03-02T01:08:11.527Z,9.03
2024-03-02T01:10:37.939Z,9.10
2024-03-02T01:13:04.712Z,9.17
2024-03-02T01:15:31.258Z,9.30
2024-03-02T01:17:57.751Z,9.23
2024-03-02T01:20:24.154Z,9.13
2024-03-02T01:22:50.617Z,9.15
2024-03-02T01:25:17.085Z,9.22
2024-03-02T01:27:43.545Z,9.20
2024-03-02T01:30:10.352Z,9.24
2024-03-02T01:32:39.015Z,9.25
2024-03-02T01:35:06.957Z,9.24
2024-03-02T01:37:33.488Z,9.24
2024-03-02T01:39:59.995Z,9.15
2024-03-02T01:42:26.597Z,9.13
2024-03-02T01:44:53.046Z,9.19
2024-03-02T01:47:19.564Z,9.07
2024-03-02T01:49:45.956Z,9.13
2024-03-02T01:52:12.579Z,9.20
2024-03-02T01:54:39.043Z,9.11
2024-03-02T01:57:05.742Z,9.17
2024-03-02T01:59:32.152Z,9.17
2024-03-02T02:01:58.527Z,9.09
2024-03-02T02:04:28.724Z,9.14
2024-03-02T02:06:55.298Z,9.08
2024-03-02T02:09:21.930Z,9.12
2024-03-02T02:11:48.452Z,9.18
2024-03-02T02:14:15.027Z,9.04
2024-03-02T02:16:41.407Z,9.11
2024-03-02T02:19:07.851Z,9.04
2024-03-02T02:21:34.621Z,9.10
2024-03-02T02:24:02.311Z,9.16
2024-03-02T02:26:28.738Z,9.17
2024-03-02T02:28:55.162Z,9.15
2024-03-02T02:31:21.630Z,9.11
2024-03-02T02:33:48.153Z,9.07
2024-03-02T02:36:14.616Z,9.01
2024-03-02T02:38:45.549Z,9.04
2024-03-02T02:41:11.965Z,9.07
2024-03-02T02:43:38.424Z,8.86
2024-03-02T02:46:04.957Z,9.01
2024-03-02T02:48:31.424Z,9.05
2024-03-02T02:50:57.852Z,8.96
2024-03-02T02:53:24.270Z,8.97
2024-03-02T02:55:50.697Z,9.02
2024-03-02T02:58:17.141Z,8.98
2024-03-02T03:00:43.613Z,9.00
2024-03-02T03:03:10.073Z,9.00
2024-03-02T03:05:36.462Z,8.96
2024-03-02T03:08:03.811Z,9.01
2024-03-02T03:10:30.252Z,8.98
2024-03-02T03:12:57.375Z,8.98
2024-03-02T03:15:24.188Z,9.02
2024-03-02T03:17:51.989Z,8.95
2024-03-02T03:20:18.482Z,8.96
2024-03-02T03:22:45.218Z,8.98
2024-03-02T03:25:11.672Z,8.96
2024-03-02T03:27:38.294Z,8.87
2024-03-02T03:30:07.137Z,8.98
2024-03-02T03:32:33.663Z,8.98
2024-03-02T03:35:00.163Z,9.00
2024-03-02T03:37:28.779Z,8.93
2024-03-02T03:39:55.345Z,8.93
2024-03-02T03:42:21.873Z,8.85
2024-03-02T03:44:48.329Z,8.93
2024-03-02T03:47:14.761Z,8.92
2024-03-02T03:49:41.161Z,8.98
2024-03-02T03:52:07.565Z,8.92
2024-03-02T03:54:34.154Z,8.92
2024-03-02T03:57:00.624Z,8.93
2024-03-02T03:59:27.033Z,9.04
2024-03-02T04:01:54.093Z,8.93
2024-03-02T04:04:20.489Z,8.82
2024-03-02T04:06:46.926Z,8.80
2024-03-02T04:09:13.381Z,8.82
2024-03-02T04:11:39.858Z,8.84
2024-03-02T04:14:07.294Z,8.75
2024-03-02T04:16:33.677Z,8.73
2024-03-02T04:19:00.126Z,8.68
2024-03-02T04:21:26.679Z,8.69
2024-03-02T04:23:53.132Z,8.77
2024-03-02T04:26:23.198Z,8.84
2024-03-02T04:28:49.689Z,8.83
2024-03-02T04:31:17.255Z,8.81
2024-03-02T04:33:44.188Z,8.86
2024-03-02T04:36:10.808Z,8.79
2024-03-02T04:38:37.770Z,8.81
2024-03-02T04:41:08.187Z,8.78
2024-03-02T04:43:35.477Z,8.89
2024-03-02T04:46:02.670Z,8.82
2024-03-02T04:48:29.638Z,8.83
2024-03-02T04:50:56.078Z,8.91
2024-03-02T04:53:22.493Z,8.94
2024-03-02T04:56:07.321Z,8.94
2024-03-02T04:58:33.734Z,8.99
2024-03-02T05:01:00.178Z,8.75
2024-03-02T05:03:26.877Z,8.93
2024-03-02T05:05:53.279Z,8.84
2024-03-02T05:08:19.729Z,8.88
2024-03-02T05:10:46.932Z,8.87
2024-03-02T05:13:13.362Z,8.77
2024-03-02T05:15:40.097Z,8.91
2024-03-02T05:18:06.716Z,8.90
2024-03-02T05:20:33.300Z,8.84
2024-03-02T05:22:59.691Z,8.78
2024-03-02T05:25:26.143Z,8.73
2024-03-02T05:27:52.719Z,8.74
2024-03-02T05:30:19.258Z,8.81
2024-03-02T05:32:45.744Z,8.85
2024-03-02T05:35:13.866Z,8.93
2024-03-02T05:37:40.588Z,8.81
2024-03-02T05:40:07.779Z,8.94
2024-03-02T05:42:34.248Z,8.85
2024-03-02T05:45:00.819Z,8.83
2024-03-02T05:47:27.340Z,8.81
2024-03-02T05:49:53.769Z,8.77
2024-03-02T05:52:20.247Z,8.53
2024-03-02T05:54:46.721Z,8.65
2024-03-02T05:57:33.222Z,8.56
2024-03-02T06:00:00.061Z,8.55
2024-03-02T06:02:26.470Z,8.63
2024-03-02T06:04:56.163Z,8.61
2024-03-02T06:07:22.613Z,8.71
2024-03-02T06:09:51.906Z,8.68
2024-03-02T06:12:18.672Z,8.71
2024-03-02T06:14:45.142Z,8.67
2024-03-02T06:17:11.516Z,8.71
2024-03-02T06:19:38.057Z,8.69
2024-03-02T06:22:05.064Z,8.62
2024-03-02T06:24:32.098Z,8.60
2024-03-02T06:26:58.496Z,8.54
2024-03-02T06:29:24.913Z,8.57
2024-03-02T06:31:53.367Z,8.62
2024-03-02T06:34:21.157Z,8.53
2024-03-02T06:36:47.573Z,8.53
2024-03-02T06:39:14.045Z,8.54
2024-03-02T06:41:40.480Z,8.52
2024-03-02T06:44:07.604Z,8.51
2024-03-02T06:46:33.997Z,8.62
2024-03-02T06:49:00.442Z,8.52
2024-03-02T06:51:26.926Z,8.55
2024-03-02T06:53:53.359Z,8.61
2024-03-02T06:56:19.759Z,8.61
2024-03-02T06:58:46.158Z,8.55
2024-03-02T07:01:12.665Z,8.59
2024-03-02T07:03:40.512Z,8.60
2024-03-02T07:06:07.073Z,8.49
2024-03-02T07:08:33.494Z,8.46
2024-03-02T07:10:59.995Z,8.50
2024-03-02T07:13:26.675Z,8.51
2024-03-02T07:16:05.374Z,8.50
2024-03-02T07:18:32.211Z,8.47
2024-03-02T07:21:02.539Z,8.51
2024-03-02T07:23:29.224Z,8.64
2024-03-02T07:28:27.684Z,8.59
2024-03-02T07:31:01.107Z,8.52
2024-03-02T07:33:27.728Z,8.58
2024-03-02T07:35:57.469Z,8.51
2024-03-02T07:38:24.267Z,8.50
2024-03-02T07:40:51.782Z,8.46
2024-03-02T07:43:18.626Z,8.52
2024-03-02T07:45:45.086Z,8.55
2024-03-02T07:48:11.707Z,8.58
2024-03-02T07:50:39.926Z,8.53
2024-03-02T07:53:06.989Z,8.57
2024-03-02T07:55:33.439Z,8.57
2024-03-02T07:58:01.007Z,8.61
2024-03-02T08:00:28.791Z,8.52
2024-03-02T08:02:56.415Z,8.50
2024-03-02T08:05:22.862Z,8.51
2024-03-02T08:07:49.444Z,8.47
2024-03-02T08:10:15.829Z,8.45
2024-03-02T08:12:42.800Z,8.54
2024-03-02T08:15:09.521Z,8.60
2024-03-02T08:17:38.142Z,8.56
2024-03-02T08:20:06.220Z,8.50
2024-03-02T08:22:32.663Z,8.54
2024-03-02T08:24:59.810Z,8.52
2024-03-02T08:27:26.307Z,8.49
2024-03-02T08:29:52.728Z,8.43
2024-03-02T08:32:19.307Z,8.51
2024-03-02T08:34:45.703Z,8.48
2024-03-02T08:37:12.703Z,8.51
2024-03-02T08:39:39.562Z,8.57
2024-03-02T08:42:06.327Z,8.52
2024-03-02T08:44:32.837Z,8.53
2024-03-02T08:46:59.601Z,8.70
2024-03-02T08:49:25.996Z,8.68
2024-03-02T08:51:56.280Z,8.70
2024-03-02T08:54:23.132Z,8.77
2024-03-02T08:56:52.708Z,8.68
2024-03-02T08:59:19.213Z,8.64
2024-03-02T09:01:46.326Z,8.72
2024-03-02T09:04:12.910Z,8.73
2024-03-02T09:06:39.542Z,8.68
2024-03-02T09:09:06.059Z,8.67
2024-03-02T09:11:33.572Z,8.77
2024-03-02T09:14:00.074Z,8.75
2024-03-02T09:16:32.363Z,8.86
2024-03-02T09:18:59.586Z,8.92
2024-03-02T09:21:26.648Z,8.94
2024-03-02T09:23:53.130Z,8.96
2024-03-02T09:26:21.821Z,8.99
2024-03-02T09:28:48.340Z,8.93
2024-03-02T09:31:14.938Z,8.94
2024-03-02T09:33:41.490Z,8.97
2024-03-02T09:36:18.665Z,9.12
2024-03-02T09:38:45.129Z,9.08
2024-03-02T09:41:11.879Z,9.10
2024-03-02T09:43:39.154Z,9.11
2024-03-02T09:46:06.014Z,9.12
2024-03-02T09:48:32.532Z,9.13
2024-03-02T09:51:00.189Z,9.28
2024-03-02T09:53:31.113Z,9.40
2024-03-02T09:55:57.568Z,9.54
2024-03-02T09:58:24.008Z,9.68
2024-03-02T10:00:50.733Z,9.87
2024-03-02T10:03:19.891Z,10.32
2024-03-02T10:05:46.359Z,10.86
2024-03-02T10:08:12.798Z,11.47
2024-03-02T10:10:41.530Z,11.77
2024-03-02T10:13:09.237Z,12.02
2024-03-02T10:15:36.580Z,11.95
2024-03-02T10:18:03.127Z,12.09
2024-03-02T10:20:30.329Z,12.11
2024-03-02T10:23:10.801Z,12.34
2024-03-02T10:25:43.700Z,12.53
2024-03-02T10:28:19.153Z,13.08
2024-03-02T10:30:49.980Z,13.22
2024-03-02T10:33:18.460Z,13.34
2024-03-02T10:35:45.113Z,13.24
2024-03-02T10:38:12.351Z,13.30
2024-03-02T10:40:38.869Z,13.36
2024-03-02T10:43:07.146Z,13.43
2024-03-02T10:45:34.481Z,12.80
2024-03-02T10:48:03.563Z,13.09
2024-03-02T10:50:31.104Z,13.38
2024-03-02T10:52:57.569Z,13.03
2024-03-02T10:55:24.422Z,12.63
2024-03-02T10:57:57.819Z,12.25
2024-03-02T11:00:30.714Z,12.23
2024-03-02T11:02:58.976Z,11.80
2024-03-02T11:05:32.531Z,11.72
2024-03-02T11:08:04.534Z,11.71
2024-03-02T11:10:52.974Z,11.41
2024-03-02T11:13:25.598Z,11.27
2024-03-02T11:15:56.703Z,11.14
2024-03-02T11:18:23.590Z,11.23
2024-03-02T11:20:50.217Z,11.34
2024-03-02T11:23:16.760Z,11.55
2024-03-02T11:25:43.338Z,12.00
2024-03-02T11:28:12.852Z,11.93
2024-03-02T11:30:39.786Z,12.03
2024-03-02T11:33:12.381Z,11.63
2024-03-02T11:35:44.291Z,11.90
2024-03-02T11:38:11.375Z,11.76
2024-03-02T11:40:41.051Z,11.72
2024-03-02T11:43:09.137Z,11.41
2024-03-02T11:45:41.744Z,11.24
2024-03-02T11:48:13.493Z,11.39
2024-03-02T11:50:51.681Z,11.44
2024-03-02T11:53:19.423Z,11.22
2024-03-02T11:55:48.162Z,11.04
2024-03-02T11:58:22.039Z,10.61
2024-03-02T12:00:52.197Z,10.69
2024-03-02T12:03:18.771Z,10.62
2024-03-02T12:05:45.378Z,10.59
2024-03-02T12:08:13.922Z,10.72
2024-03-02T12:10:40.704Z,10.59
2024-03-02T12:13:08.800Z,10.43
2024-03-02T12:15:40.229Z,10.61
2024-03-02T12:18:07.470Z,10.39
2024-03-02T12:20:34.919Z,10.43
2024-03-02T12:23:03.716Z,10.34
2024-03-02T12:25:32.409Z,10.29
2024-03-02T12:28:01.108Z,10.30
2024-03-02T12:30:31.999Z,10.38
2024-03-02T12:32:58.559Z,10.28
2024-03-02T12:35:26.032Z,10.30
2024-03-02T12:37:53.476Z,10.28
2024-03-02T12:40:21.470Z,10.26
2024-03-02T12:42:48.114Z,10.20
2024-03-02T12:45:15.071Z,10.19
2024-03-02T12:47:43.056Z,10.17
2024-03-02T12:50:11.061Z,10.22
2024-03-02T12:52:37.530Z,10.23
2024-03-02T12:55:07.932Z,10.31
2024-03-02T12:57:35.525Z,10.35
2024-03-02T13:00:14.076Z,10.31
2024-03-02T13:02:41.927Z,10.41
2024-03-02T13:05:15.156Z,10.52
2024-03-02T13:07:46.238Z,10.55
2024-03-02T13:10:13.776Z,10.47
2024-03-02T13:12:40.273Z,10.55
2024-03-02T13:15:07.182Z,10.59
2024-03-02T13:17:38.163Z,10.58
2024-03-02T13:20:11.928Z,10.49
2024-03-02T13:22:38.781Z,10.57
2024-03-02T13:25:06.588Z,10.46
2024-03-02T13:27:34.006Z,10.33
2024-03-02T13:30:00.711Z,10.39
2024-03-02T13:32:27.503Z,10.23
2024-03-02T13:34:54.049Z,10.32
2024-03-02T13:37:22.311Z,10.26
2024-03-02T13:39:48.962Z,10.31
2024-03-02T13:42:16.446Z,10.26
2024-03-02T13:44:51.118Z,10.31
2024-03-02T13:47:18.172Z,10.15
2024-03-02T13:49:46.887Z,10.26
2024-03-02T13:52:18.334Z,10.30
2024-03-02T13:54:46.427Z,10.41
2024-03-02T13:57:13.328Z,10.32
2024-03-02T13:59:40.718Z,10.39
2024-03-02T14:02:07.566Z,10.27
2024-03-02T14:04:37.909Z,10.31
2024-03-02T14:07:05.276Z,10.33
2024-03-02T14:09:31.966Z,10.37
2024-03-02T14:11:58.466Z,10.31
2024-03-02T14:14:25.665Z,10.35
2024-03-02T14:16:52.599Z,10.36
2024-03-02T14:19:19.081Z,10.47
2024-03-02T14:21:45.647Z,10.46
2024-03-02T14:24:12.201Z,10.38
2024-03-02T14:26:38.741Z,10.49
2024-03-02T14:29:06.256Z,10.34
2024-03-02T14:31:32.998Z,10.39
2024-03-02T14:34:00.112Z,10.28
2024-03-02T14:36:28.709Z,10.29
2024-03-02T14:38:55.812Z,10.28
2024-03-02T14:41:22.718Z,10.29
2024-03-02T14:43:50.586Z,10.29
2024-03-02T14:46:18.034Z,10.31
2024-03-02T14:48:45.030Z,10.20
2024-03-02T14:51:11.752Z,10.16
2024-03-02T14:53:39.183Z,10.31
2024-03-02T14:56:06.374Z,10.48
2024-03-02T14:58:33.082Z,10.51
2024-03-02T15:00:59.619Z,10.45
2024-03-02T15:03:26.205Z,10.45
2024-03-02T15:05:52.942Z,10.52
2024-03-02T15:08:19.413Z,10.48
2024-03-02T15:10:46.209Z,10.48
2024-03-02T15:13:12.897Z,10.48
2024-03-02T15:15:39.473Z,10.46
2024-03-02T15:18:06.857Z,10.33
2024-03-02T15:20:33.610Z,10.34
2024-03-02T15:23:00.438Z,10.35
2024-03-02T15:25:26.935Z,10.30
2024-03-02T15:27:53.510Z,10.24
2024-03-02T15:30:20.134Z,10.17
2024-03-02T15:32:46.529Z,10.21
2024-03-02T15:35:13.139Z,10.21
2024-03-02T15:37:39.543Z,10.21
2024-03-02T15:40:07.814Z,10.13
2024-03-02T15:42:35.118Z,10.18
2024-03-02T15:45:02.075Z,10.09
2024-03-02T15:47:28.959Z,10.00
2024-03-02T15:49:55.522Z,10.12
2024-03-02T15:52:22.597Z,10.12
2024-03-02T15:54:51.120Z,9.95
2024-03-02T15:57:18.076Z,10.03
2024-03-02T15:59:45.293Z,10.07
2024-03-02T16:02:11.922Z,10.10
2024-03-02T16:04:38.418Z,10.15
2024-03-02T16:07:04.931Z,9.87
2024-03-02T16:09:31.446Z,9.90
2024-03-02T16:11:58.028Z,9.86
2024-03-02T16:14:24.536Z,9.86
2024-03-02T16:16:51.101Z,9.97
2024-03-02T16:19:25.585Z,9.99
2024-03-02T16:21:59.059Z,10.05
2024-03-02T16:24:25.691Z,10.06
2024-03-02T16:26:52.140Z,9.90
2024-03-02T16:29:18.680Z,9.90
2024-03-02T16:31:45.220Z,9.92
2024-03-02T16:34:11.892Z,9.84
2024-03-02T16:36:39.376Z,9.83
2024-03-02T16:39:06.227Z,9.74
2024-03-02T16:41:34.206Z,9.74
2024-03-02T16:44:03.397Z,9.81
2024-03-02T16:46:30.530Z,9.69
2024-03-02T16:48:57.021Z,9.68
2024-03-02T16:51:23.495Z,9.54
2024-03-02T16:53:49.914Z,9.60
2024-03-02T16:56:16.848Z,9.58
2024-03-02T16:58:43.242Z,9.42
2024-03-02T17:01:09.870Z,9.43
2024-03-02T17:03:36.332Z,9.23
2024-03-02T17:06:03.142Z,9.23
2024-03-02T17:08:29.644Z,9.26
2024-03-02T17:10:56.252Z,9.26
2024-03-02T17:13:22.780Z,9.18
2024-03-02T17:15:49.229Z,9.04
2024-03-02T17:18:15.876Z,9.09
2024-03-02T17:20:42.342Z,8.81
2024-03-02T17:23:08.906Z,8.77
2024-03-02T17:25:35.367Z,8.65
2024-03-02T17:28:33.074Z,8.75
2024-03-02T17:31:00.912Z,8.70
2024-03-02T17:33:27.391Z,8.50
2024-03-02T17:35:54.330Z,8.43
2024-03-02T17:38:21.006Z,8.27
2024-03-02T17:40:47.452Z,8.31
2024-03-02T17:43:14.165Z,8.19
2024-03-02T17:45:41.006Z,8.11
2024-03-02T17:48:13.140Z,8.10
2024-03-02T17:50:39.976Z,8.09
2024-03-02T17:53:06.715Z,8.01
2024-03-02T17:55:33.177Z,7.88
2024-03-02T17:57:59.809Z,7.89
2024-03-02T18:00:26.526Z,7.93
2024-03-02T18:02:53.026Z,7.88
2024-03-02T18:05:19.443Z,7.89
2024-03-02T18:07:45.984Z,7.83
2024-03-02T18:10:12.844Z,7.76
2024-03-02T18:12:39.728Z,7.70
2024-03-02T18:15:10.125Z,7.72
2024-03-02T18:17:37.050Z,7.73
2024-03-02T18:20:05.798Z,7.83
2024-03-02T18:22:33.259Z,7.74
2024-03-02T18:25:00.837Z,7.88
2024-03-02T18:27:28.094Z,7.74
2024-03-02T18:29:55.329Z,7.57
2024-03-02T18:32:22.088Z,7.56
2024-03-02T18:34:48.769Z,7.57
2024-03-02T18:37:16.501Z,7.47
2024-03-02T18:39:43.466Z,7.40
2024-03-02T18:42:10.027Z,7.10
2024-03-02T18:44:36.564Z,7.14
2024-03-02T18:47:03.158Z,7.16
2024-03-02T18:49:29.779Z,7.04
2024-03-02T18:51:56.396Z,6.90
2024-03-02T18:54:22.908Z,7.01
2024-03-02T18:56:49.390Z,6.95
2024-03-02T18:59:16.260Z,6.90
2024-03-02T19:01:42.965Z,6.91
2024-03-02T19:04:09.665Z,6.97
2024-03-02T19:06:36.205Z,6.97
2024-03-02T19:09:02.767Z,6.91
2024-03-02T19:11:29.344Z,6.91
2024-03-02T19:13:55.893Z,6.82
2024-03-02T19:16:22.787Z,6.82
2024-03-02T19:18:49.638Z,6.66
2024-03-02T19:21:16.487Z,6.62
2024-03-02T19:23:45.437Z,6.65
2024-03-02T19:26:19.386Z,6.53
2024-03-02T19:28:47.294Z,6.63
2024-03-02T19:31:14.335Z,6.65
2024-03-02T19:33:40.869Z,6.50
2024-03-02T19:36:07.563Z,6.48
2024-03-02T19:38:36.081Z,6.54
2024-03-02T19:41:02.829Z,6.52
2024-03-02T19:43:29.461Z,6.44
2024-03-02T19:45:55.954Z,6.47
2024-03-02T19:48:22.437Z,6.24
2024-03-02T19:50:49.112Z,6.30
2024-03-02T19:53:15.678Z,6.32
2024-03-02T19:55:45.071Z,6.38
2024-03-02T19:58:11.859Z,6.37
2024-03-02T20:00:38.426Z,6.38
2024-03-02T20:03:04.972Z,6.48
2024-03-02T20:05:31.477Z,6.58
2024-03-02T20:07:57.917Z,6.53
2024-03-02T20:10:24.601Z,6.57
2024-03-02T20:12:51.153Z,6.59
2024-03-02T20:15:19.871Z,6.78
2024-03-02T20:17:47.521Z,6.75
2024-03-02T20:20:14.861Z,6.58
2024-03-02T20:22:41.208Z,6.71
2024-03-02T20:25:08.064Z,6.73
2024-03-02T20:27:34.664Z,6.81
2024-03-02T20:30:01.185Z,6.87
2024-03-02T20:32:27.870Z,7.00
2024-03-02T20:34:54.475Z,7.09
2024-03-02T20:37:24.834Z,7.30
2024-03-02T20:39:53.920Z,7.39
2024-03-02T20:42:20.503Z,7.49
2024-03-02T20:44:46.915Z,7.63
2024-03-02T20:47:13.742Z,7.78
2024-03-02T20:49:43.490Z,7.89
2024-03-02T20:52:10.651Z,8.02
2024-03-02T20:54:38.173Z,8.02
2024-03-02T20:57:07.746Z,8.06
2024-03-02T20:59:34.807Z,8.17
2024-03-02T21:02:01.587Z,8.20
2024-03-02T21:04:28.120Z,8.26
2024-03-02T21:06:54.610Z,8.34
2024-03-02T21:09:21.391Z,8.37
2024-03-02T21:11:49.534Z,8.39
2024-03-02T21:14:16.299Z,8.43
2024-03-02T21:16:42.831Z,8.56
2024-03-02T21:19:10.210Z,8.60
2024-03-02T21:21:39.021Z,8.57
2024-03-02T21:24:06.085Z,8.57
2024-03-02T21:26:32.667Z,8.60
2024-03-02T21:28:59.276Z,8.61
2024-03-02T21:31:25.717Z,8.61
2024-03-02T21:33:52.189Z,8.64
2024-03-02T21:36:18.649Z,8.69
2024-03-02T21:38:45.160Z,8.67
2024-03-02T21:41:11.552Z,8.67
2024-03-02T21:43:38.543Z,8.65
2024-03-02T21:46:05.154Z,8.71
2024-03-02T21:48:31.708Z,8.74
2024-03-02T21:50:58.247Z,8.71
2024-03-02T21:53:24.847Z,8.74
2024-03-02T21:55:51.251Z,8.68
2024-03-02T21:58:17.780Z,8.70
2024-03-02T22:00:44.331Z,8.72
2024-03-02T22:03:10.934Z,8.75
2024-03-02T22:05:37.498Z,8.78
2024-03-02T22:08:04.094Z,8.76
2024-03-02T22:10:30.890Z,8.73
2024-03-02T22:12:57.524Z,8.70
2024-03-02T22:15:24.027Z,8.73
2024-03-02T22:17:50.651Z,8.65
2024-03-02T22:20:17.119Z,8.64
2024-03-02T22:22:43.564Z,8.64
2024-03-02T22:25:10.531Z,8.65
2024-03-02T22:27:40.885Z,8.68
2024-03-02T22:30:09.214Z,8.59
2024-03-02T22:32:35.740Z,8.63
2024-03-02T22:35:02.270Z,8.61
2024-03-02T22:37:28.727Z,8.56
2024-03-02T22:39:55.363Z,8.56
2024-03-02T22:42:21.843Z,8.50
2024-03-02T22:44:48.348Z,8.55
2024-03-02T22:47:14.829Z,8.56
2024-03-02T22:49:41.334Z,8.54
2024-03-02T22:52:07.838Z,8.52
2024-03-02T22:54:34.359Z,8.44
2024-03-02T22:57:02.125Z,8.51
2024-03-02T22:59:28.741Z,8.51
2024-03-02T23:01:55.589Z,8.49
2024-03-02T23:04:22.455Z,8.46
2024-03-02T23:06:49.591Z,8.42
2024-03-02T23:09:16.216Z,8.32
2024-03-02T23:11:42.701Z,8.37
2024-03-02T23:14:09.317Z,8.32
2024-03-02T23:16:38.317Z,8.34
2024-03-02T23:19:04.968Z,8.31
2024-03-02T23:21:31.614Z,8.32
2024-03-02T23:23:58.827Z,8.36
2024-03-02T23:26:26.236Z,8.41
2024-03-02T23:28:52.867Z,8.42
2024-03-02T23:31:19.686Z,8.38
2024-03-02T23:33:48.258Z,8.32
2024-03-02T23:36:14.838Z,8.35
2024-03-02T23:38:41.260Z,8.32
2024-03-02T23:41:11.638Z,8.28
2024-03-02T23:43:38.728Z,8.22
2024-03-02T23:46:07.527Z,8.20
2024-03-02T23:48:35.167Z,8.33
2024-03-02T23:51:02.712Z,8.23
2024-03-02T23:53:29.170Z,8.22
2024-03-02T23:55:59.242Z,8.19
2024-03-02T23:58:25.899Z,8.23
